Terminal Aerodrome Forecast
Issued by NWS Melbourne, FL

Home | Current Version | Previous Version | Text Only | Print | Product List | Glossary On
Versions: 1 2 3 4 5 6 7 8 9 10 11 12 13 14
000
FTUS42 KMLB 241728
TAFVRB
TAF
KVRB 241728Z 2418/2518 10012KT P6SM FEW020
     FM250100 10008KT P6SM VCSH SCT020
     FM251300 10012KT P6SM VCSH SCT020 BKN035=

USA.gov is the U.S. government's official web portal to all federal, state and local government web resources and services.